createdAt,value
2018-12-06T00:02:10.556Z,13.77
2018-12-06T00:04:40.239Z,14.60
2018-12-06T00:07:09.521Z,14.80
2018-12-06T00:09:38.680Z,15.37
2018-12-06T00:12:07.851Z,14.33
2018-12-06T00:14:37.448Z,15.23
2018-12-06T00:17:07.491Z,14.00
2018-12-06T00:19:36.712Z,17.03
2018-12-06T00:22:05.935Z,14.10
2018-12-06T00:24:35.177Z,15.80
2018-12-06T00:27:05.244Z,20.00
2018-12-06T00:29:34.473Z,17.60
2018-12-06T00:32:04.999Z,16.43
2018-12-06T00:34:34.154Z,11.90
2018-12-06T00:37:03.431Z,12.07
2018-12-06T00:39:32.644Z,15.50
2018-12-06T00:42:02.533Z,13.27
2018-12-06T00:44:32.211Z,15.00
2018-12-06T00:47:01.388Z,13.90
2018-12-06T00:49:30.572Z,14.73
2018-12-06T00:51:59.812Z,14.77
2018-12-06T00:54:29.508Z,14.30
2018-12-06T00:56:58.828Z,15.00
2018-12-06T00:59:28.176Z,17.00
2018-12-06T01:01:57.472Z,14.50
2018-12-06T01:04:56.102Z,14.77
2018-12-06T01:07:25.460Z,14.67
2018-12-06T01:09:55.128Z,15.03
2018-12-06T01:12:25.535Z,15.27
2018-12-06T01:14:55.223Z,16.70
2018-12-06T01:17:24.503Z,15.07
2018-12-06T01:19:54.077Z,16.40
2018-12-06T01:22:23.584Z,15.77
2018-12-06T01:24:52.831Z,13.77
2018-12-06T01:27:22.648Z,15.27
2018-12-06T01:29:51.845Z,15.47
2018-12-06T01:32:21.072Z,15.40
2018-12-06T01:34:50.272Z,15.77
2018-12-06T01:37:19.477Z,16.70
2018-12-06T01:39:48.971Z,15.40
2018-12-06T01:42:18.118Z,15.63
2018-12-06T01:44:47.397Z,15.17
2018-12-06T01:47:17.028Z,15.30
2018-12-06T01:49:46.274Z,14.83
2018-12-06T01:52:15.832Z,16.80
2018-12-06T01:54:45.079Z,16.87
2018-12-06T01:57:14.340Z,18.10
2018-12-06T01:59:43.664Z,16.90
2018-12-06T02:02:13.283Z,17.47
2018-12-06T02:04:42.432Z,17.83
2018-12-06T02:07:11.984Z,16.30
2018-12-06T02:09:41.148Z,19.17
2018-12-06T02:12:10.396Z,16.23
2018-12-06T02:14:40.591Z,19.50
2018-12-06T02:17:09.806Z,16.97
2018-12-06T02:19:39.049Z,18.77
2018-12-06T02:22:08.273Z,16.27
2018-12-06T02:24:37.583Z,16.00
2018-12-06T02:27:06.709Z,19.10
2018-12-06T02:29:41.273Z,17.80
2018-12-06T02:32:10.577Z,16.23
2018-12-06T02:34:39.814Z,17.20
2018-12-06T02:37:09.530Z,16.60
2018-12-06T02:39:38.866Z,18.63
2018-12-06T02:42:08.155Z,19.30
2018-12-06T02:44:37.600Z,19.90
2018-12-06T02:47:07.588Z,22.00
2018-12-06T02:49:36.883Z,19.97
2018-12-06T02:52:06.941Z,18.13
2018-12-06T02:54:36.549Z,19.87
2018-12-06T02:57:05.787Z,18.83
2018-12-06T02:59:35.021Z,17.40
2018-12-06T03:02:04.238Z,16.27
2018-12-06T03:04:33.534Z,18.87
2018-12-06T03:07:02.851Z,17.50
2018-12-06T03:09:32.016Z,18.50
2018-12-06T03:12:01.774Z,20.00
2018-12-06T03:14:31.088Z,19.17
2018-12-06T03:17:00.837Z,17.57
2018-12-06T03:19:30.052Z,19.50
2018-12-06T03:21:59.307Z,17.67
2018-12-06T03:24:29.574Z,20.27
2018-12-06T03:26:58.688Z,17.90
2018-12-06T03:29:28.024Z,20.30
2018-12-06T03:31:57.230Z,19.90
2018-12-06T03:34:27.494Z,18.00
2018-12-06T03:36:56.758Z,19.80
2018-12-06T03:39:25.949Z,18.70
2018-12-06T03:41:55.091Z,18.07
2018-12-06T03:44:24.237Z,18.83
2018-12-06T03:46:54.225Z,18.53
2018-12-06T03:49:23.384Z,18.67
2018-12-06T03:51:52.537Z,17.20
2018-12-06T03:54:21.751Z,19.00
2018-12-06T03:56:51.321Z,18.40
2018-12-06T03:59:20.513Z,19.07
2018-12-06T04:01:49.753Z,19.60
2018-12-06T04:04:19.041Z,19.20
2018-12-06T04:06:48.294Z,19.83
2018-12-06T04:09:17.433Z,17.73
2018-12-06T04:11:46.703Z,18.90
2018-12-06T04:14:16.680Z,16.27
2018-12-06T04:16:46.160Z,20.33
2018-12-06T04:19:15.608Z,18.70
2018-12-06T04:21:44.841Z,16.23
2018-12-06T04:24:14.106Z,18.20
2018-12-06T04:26:43.250Z,16.67
2018-12-06T04:29:12.465Z,18.67
2018-12-06T04:31:41.958Z,17.00
2018-12-06T04:34:11.457Z,16.60
2018-12-06T04:36:40.951Z,17.23
2018-12-06T04:39:10.868Z,16.03
2018-12-06T04:41:40.017Z,18.53
2018-12-06T04:44:09.697Z,17.57
2018-12-06T04:46:38.927Z,18.53
2018-12-06T04:49:08.227Z,18.50
2018-12-06T04:51:37.581Z,18.40
2018-12-06T04:54:06.710Z,18.30
2018-12-06T04:56:35.934Z,16.80
2018-12-06T04:59:05.245Z,15.50
2018-12-06T05:01:34.413Z,16.60
2018-12-06T05:04:03.737Z,17.00
2018-12-06T05:06:33.420Z,18.73
2018-12-06T05:11:42.032Z,15.97
2018-12-06T05:14:11.313Z,16.27
2018-12-06T05:16:40.580Z,17.13
2018-12-06T05:19:11.076Z,17.97
2018-12-06T05:21:40.317Z,17.80
2018-12-06T05:24:09.613Z,20.67
2018-12-06T05:26:44.510Z,24.50
2018-12-06T05:29:13.697Z,20.10
2018-12-06T05:31:43.155Z,16.50
2018-12-06T05:34:12.348Z,17.60
2018-12-06T05:36:42.580Z,18.40
2018-12-06T05:39:12.005Z,18.40
2018-12-06T05:41:41.210Z,18.70
2018-12-06T05:44:10.504Z,17.33
2018-12-06T05:46:40.076Z,20.23
2018-12-06T05:49:09.260Z,21.73
2018-12-06T05:51:38.476Z,20.27
2018-12-06T05:54:08.001Z,22.17
2018-12-06T05:56:37.182Z,20.93
2018-12-06T05:59:06.477Z,22.30
2018-12-06T06:01:35.662Z,20.77
2018-12-06T06:04:04.997Z,19.50
2018-12-06T06:06:34.138Z,19.97
2018-12-06T06:09:04.479Z,20.10
2018-12-06T06:11:33.628Z,21.20
2018-12-06T06:14:02.920Z,24.70
2018-12-06T06:16:32.556Z,21.70
2018-12-06T06:19:02.301Z,23.20
2018-12-06T06:21:31.433Z,18.93
2018-12-06T06:24:00.557Z,22.60
2018-12-06T06:26:29.768Z,19.53
2018-12-06T06:28:58.929Z,23.03
2018-12-06T06:31:28.228Z,24.07
2018-12-06T06:33:57.893Z,20.20
2018-12-06T06:36:27.152Z,20.30
2018-12-06T06:38:57.085Z,22.70
2018-12-06T06:41:26.317Z,23.23
2018-12-06T06:43:55.540Z,22.00
2018-12-06T06:46:25.071Z,23.23
2018-12-06T06:48:54.283Z,21.47
2018-12-06T06:51:23.425Z,20.23
2018-12-06T06:53:52.557Z,20.93
2018-12-06T06:56:21.774Z,21.60
2018-12-06T06:58:50.953Z,20.97
2018-12-06T07:01:20.140Z,18.80
2018-12-06T07:03:49.305Z,18.30
2018-12-06T07:06:18.617Z,19.43
2018-12-06T07:08:47.790Z,19.23
2018-12-06T07:11:17.632Z,19.57
2018-12-06T07:13:46.865Z,21.57
2018-12-06T07:16:16.145Z,24.83
2018-12-06T07:18:45.449Z,25.97
2018-12-06T07:21:14.616Z,22.40
2018-12-06T07:23:43.866Z,22.33
2018-12-06T07:26:13.038Z,24.03
2018-12-06T07:28:42.262Z,21.70
2018-12-06T07:31:11.492Z,22.43
2018-12-06T07:33:40.637Z,21.30
2018-12-06T07:36:09.969Z,20.40
2018-12-06T07:38:39.633Z,20.87
2018-12-06T07:41:08.817Z,20.30
2018-12-06T07:43:38.281Z,21.40
2018-12-06T07:46:11.230Z,17.97
2018-12-06T07:48:40.449Z,18.90
2018-12-06T07:51:09.700Z,17.30
2018-12-06T07:53:39.112Z,18.03
2018-12-06T07:56:08.281Z,16.60
2018-12-06T07:58:37.573Z,16.70
2018-12-06T08:01:07.023Z,17.23
2018-12-06T08:03:36.596Z,16.07
2018-12-06T08:06:06.696Z,15.43
2018-12-06T08:08:35.889Z,17.37
2018-12-06T08:11:05.094Z,15.73
2018-12-06T08:13:34.392Z,15.60
2018-12-06T08:16:03.537Z,14.43
2018-12-06T08:18:32.817Z,15.10
2018-12-06T08:21:01.969Z,13.93
2018-12-06T08:23:31.128Z,13.70
2018-12-06T08:26:00.368Z,11.90
2018-12-06T08:28:29.514Z,14.37
2018-12-06T08:30:59.121Z,15.23
2018-12-06T08:33:28.256Z,14.37
2018-12-06T08:35:57.513Z,13.77
2018-12-06T08:38:26.712Z,15.00
2018-12-06T08:40:55.869Z,16.10
2018-12-06T08:43:25.004Z,14.30
2018-12-06T08:45:54.180Z,14.10
2018-12-06T08:48:23.394Z,13.50
2018-12-06T08:50:52.704Z,15.33
2018-12-06T08:53:21.897Z,13.93
2018-12-06T08:55:51.096Z,13.77
2018-12-06T08:58:20.310Z,14.13
2018-12-06T09:00:49.449Z,16.53
2018-12-06T09:03:19.302Z,15.97
2018-12-06T09:05:48.634Z,16.63
2018-12-06T09:08:18.616Z,15.80
2018-12-06T09:10:51.506Z,18.93
2018-12-06T09:13:18.968Z,15.90
2018-12-06T09:15:48.093Z,17.73
2018-12-06T09:18:17.836Z,15.93
2018-12-06T09:20:47.494Z,16.70
2018-12-06T09:23:16.729Z,13.73
2018-12-06T09:25:46.384Z,13.40
2018-12-06T09:28:15.631Z,13.17
2018-12-06T09:30:44.780Z,13.13
2018-12-06T09:33:13.957Z,13.20
2018-12-06T09:35:43.247Z,11.87
2018-12-06T09:38:13.221Z,13.60
2018-12-06T09:40:42.344Z,11.70
2018-12-06T09:43:11.584Z,14.40
2018-12-06T09:45:40.892Z,13.20
2018-12-06T09:48:10.073Z,11.97
2018-12-06T09:50:39.460Z,13.43
2018-12-06T09:53:08.669Z,13.20
2018-12-06T09:55:37.833Z,13.57
2018-12-06T09:58:07.129Z,12.73
2018-12-06T10:00:37.472Z,11.17
2018-12-06T10:03:06.703Z,11.47
2018-12-06T10:05:35.895Z,13.10
2018-12-06T10:08:05.608Z,11.97
2018-12-06T10:10:35.535Z,13.37
2018-12-06T10:13:04.764Z,14.07
2018-12-06T10:15:34.129Z,13.37
2018-12-06T10:18:03.679Z,13.20
2018-12-06T10:20:32.920Z,11.60
2018-12-06T10:23:02.136Z,11.87
2018-12-06T10:25:31.377Z,12.30
2018-12-06T10:28:00.531Z,12.40
2018-12-06T10:30:29.884Z,11.77
2018-12-06T10:32:59.061Z,11.60
2018-12-06T10:35:28.975Z,13.57
2018-12-06T10:37:58.092Z,12.50
2018-12-06T10:40:27.872Z,13.67
2018-12-06T10:42:57.500Z,12.77
2018-12-06T10:45:26.844Z,10.23
2018-12-06T10:47:56.292Z,10.73
2018-12-06T10:50:25.879Z,11.70
2018-12-06T10:52:55.057Z,10.87
2018-12-06T10:55:24.703Z,11.83
2018-12-06T10:57:53.857Z,12.67
2018-12-06T11:00:29.171Z,13.00
2018-12-06T11:03:03.516Z,10.90
2018-12-06T11:22:12.290Z,10.60
2018-12-06T11:24:41.890Z,10.50
2018-12-06T11:27:11.250Z,10.20
2018-12-06T11:29:42.871Z,10.83
2018-12-06T11:32:12.790Z,9.37
2018-12-06T11:34:42.628Z,12.67
2018-12-06T11:37:12.516Z,10.70
2018-12-06T11:39:41.644Z,12.50
2018-12-06T11:42:10.836Z,11.00
2018-12-06T11:44:39.961Z,11.40
2018-12-06T11:47:10.476Z,11.27
2018-12-06T11:49:39.656Z,9.47
2018-12-06T11:52:08.796Z,10.40
2018-12-06T11:54:38.126Z,10.50
2018-12-06T11:57:07.759Z,11.33
2018-12-06T11:59:36.922Z,11.80
2018-12-06T12:02:09.971Z,10.37
2018-12-06T12:04:37.464Z,9.77
2018-12-06T12:07:06.684Z,10.20
2018-12-06T12:09:42.729Z,11.07
2018-12-06T12:12:11.876Z,11.40
2018-12-06T12:14:41.037Z,9.67
2018-12-06T12:17:10.305Z,12.07
2018-12-06T12:19:39.573Z,11.17
2018-12-06T12:22:09.148Z,10.40
2018-12-06T12:24:38.237Z,9.93
2018-12-06T12:27:07.525Z,9.83
2018-12-06T12:29:36.672Z,9.77
2018-12-06T12:32:06.969Z,4.80
2018-12-06T12:34:36.425Z,6.33
2018-12-06T12:37:05.710Z,6.37
2018-12-06T12:39:35.477Z,7.20
2018-12-06T12:42:05.391Z,7.27
2018-12-06T12:44:34.669Z,3.70
2018-12-06T12:47:03.935Z,2.93
2018-12-06T12:49:33.529Z,2.33
2018-12-06T12:52:02.734Z,7.93
2018-12-06T12:54:32.094Z,5.23
2018-12-06T12:57:01.313Z,5.80
2018-12-06T12:59:30.495Z,7.90
2018-12-06T13:01:59.817Z,7.30
2018-12-06T13:04:28.977Z,5.07
2018-12-06T13:07:12.197Z,3.90
2018-12-06T13:09:41.800Z,2.47
2018-12-06T13:12:11.073Z,3.40
2018-12-06T13:14:40.377Z,2.40
2018-12-06T13:17:09.666Z,2.10
2018-12-06T13:19:38.781Z,2.27
2018-12-06T13:22:08.093Z,2.43
2018-12-06T13:24:37.392Z,1.97
2018-12-06T13:27:06.522Z,2.40
2018-12-06T13:29:35.648Z,2.70
2018-12-06T13:32:04.917Z,2.03
2018-12-06T13:34:34.407Z,2.10
2018-12-06T13:37:03.604Z,4.10
2018-12-06T13:39:32.796Z,2.13
2018-12-06T13:42:02.549Z,1.90
2018-12-06T13:44:31.754Z,2.03
2018-12-06T13:47:00.905Z,2.60
2018-12-06T13:49:30.496Z,1.87
2018-12-06T13:51:59.733Z,2.30
2018-12-06T13:54:28.973Z,2.60
2018-12-06T13:56:58.235Z,2.30
2018-12-06T13:59:27.346Z,2.60
2018-12-06T14:01:56.589Z,2.70
2018-12-06T14:04:25.772Z,2.40
2018-12-06T14:06:54.936Z,3.13
2018-12-06T14:09:24.057Z,3.20
2018-12-06T14:11:53.184Z,3.07
2018-12-06T14:14:22.308Z,2.80
2018-12-06T14:16:51.485Z,2.57
2018-12-06T14:19:20.749Z,3.60
2018-12-06T14:21:49.856Z,4.97
2018-12-06T14:24:19.080Z,5.13
2018-12-06T14:26:48.744Z,3.60
2018-12-06T14:29:17.861Z,3.40
2018-12-06T14:31:46.976Z,3.33
2018-12-06T14:34:16.701Z,3.60
2018-12-06T14:36:45.828Z,42.37
2018-12-06T14:39:14.956Z,10.00
2018-12-06T14:41:44.156Z,5.67
2018-12-06T14:44:18.202Z,4.73
2018-12-06T14:46:47.664Z,4.30
2018-12-06T14:49:16.767Z,3.40
2018-12-06T14:51:46.597Z,3.30
2018-12-06T14:54:16.143Z,2.90
2018-12-06T14:56:45.256Z,2.83
2018-12-06T14:59:14.400Z,2.33
2018-12-06T15:01:43.677Z,2.47
2018-12-06T15:04:12.868Z,3.03
2018-12-06T15:06:42.429Z,3.40
2018-12-06T15:09:11.639Z,2.80
2018-12-06T15:11:40.805Z,1.60
2018-12-06T15:14:10.577Z,2.27
2018-12-06T15:16:39.824Z,2.40
2018-12-06T15:19:08.953Z,3.00
2018-12-06T15:21:38.495Z,2.60
2018-12-06T15:24:07.764Z,5.13
2018-12-06T15:26:36.928Z,5.27
2018-12-06T15:29:06.892Z,4.27
2018-12-06T15:31:36.169Z,3.47
2018-12-06T15:34:05.780Z,4.30
2018-12-06T15:36:35.099Z,3.13
2018-12-06T15:39:07.718Z,4.10
2018-12-06T15:41:37.146Z,5.20
2018-12-06T15:44:07.173Z,3.50
2018-12-06T15:46:36.412Z,2.87
2018-12-06T15:49:05.833Z,5.00
2018-12-06T15:51:35.173Z,5.20
2018-12-06T15:54:04.442Z,6.10
2018-12-06T15:56:33.733Z,5.73
2018-12-06T15:59:03.433Z,5.20
2018-12-06T16:01:32.791Z,5.13
2018-12-06T16:04:02.044Z,4.03
2018-12-06T16:06:31.352Z,3.03
2018-12-06T16:09:00.632Z,3.40
2018-12-06T16:11:30.358Z,3.47
2018-12-06T16:13:59.579Z,3.20
2018-12-06T16:16:28.861Z,3.33
2018-12-06T16:18:58.276Z,3.00
2018-12-06T16:21:27.485Z,3.30
2018-12-06T16:23:56.659Z,5.00
2018-12-06T16:26:25.926Z,3.50
2018-12-06T16:28:55.335Z,4.40
2018-12-06T16:31:24.624Z,3.20
2018-12-06T16:33:54.713Z,4.50
2018-12-06T16:36:23.989Z,4.30
2018-12-06T16:38:54.174Z,3.63
2018-12-06T16:41:23.632Z,3.53
2018-12-06T16:43:52.805Z,3.50
2018-12-06T16:46:22.092Z,3.40
2018-12-06T16:48:51.506Z,3.80
2018-12-06T16:51:21.428Z,4.30
2018-12-06T16:53:50.558Z,3.80
2018-12-06T16:56:19.857Z,4.00
2018-12-06T16:58:49.057Z,3.13
2018-12-06T17:01:20.665Z,2.70
2018-12-06T17:03:51.220Z,3.50
2018-12-06T17:06:20.733Z,2.57
2018-12-06T17:08:49.923Z,3.03
2018-12-06T17:11:19.052Z,3.17
2018-12-06T17:13:48.180Z,3.40
2018-12-06T17:16:17.313Z,3.20
2018-12-06T17:18:46.636Z,3.60
2018-12-06T17:21:15.767Z,3.60
2018-12-06T17:23:46.033Z,3.63
2018-12-06T17:26:15.265Z,3.13
2018-12-06T17:28:44.429Z,4.50
2018-12-06T17:31:14.085Z,6.37
2018-12-06T17:33:43.322Z,5.03
2018-12-06T17:36:12.461Z,7.27
2018-12-06T17:38:42.209Z,7.50
2018-12-06T17:41:12.452Z,5.07
2018-12-06T17:46:43.436Z,8.70
2018-12-06T17:49:13.042Z,6.27
2018-12-06T17:51:42.261Z,18.20
2018-12-06T17:54:11.970Z,11.10
2018-12-06T17:56:41.132Z,6.77
2018-12-06T17:59:10.280Z,5.30
2018-12-06T18:01:40.317Z,26.77
2018-12-06T18:04:09.513Z,13.60
2018-12-06T18:06:38.748Z,6.30
2018-12-06T18:09:09.111Z,27.10
2018-12-06T18:11:38.863Z,6.33
2018-12-06T18:14:08.165Z,5.30
2018-12-06T18:16:37.527Z,7.80
2018-12-06T18:19:06.796Z,12.67
2018-12-06T18:21:36.428Z,10.00
2018-12-06T18:24:06.121Z,10.70
2018-12-06T18:26:35.831Z,6.00
2018-12-06T18:29:05.201Z,2.40
2018-12-06T18:31:34.419Z,8.13
2018-12-06T18:34:04.068Z,6.23
2018-12-06T18:36:33.383Z,2.80
2018-12-06T18:39:04.661Z,4.03
2018-12-06T18:41:33.867Z,6.30
2018-12-06T18:44:03.218Z,6.90
2018-12-06T18:46:32.452Z,11.33
2018-12-06T18:49:01.956Z,7.90
2018-12-06T18:51:31.444Z,5.20
2018-12-06T18:54:01.028Z,4.30
2018-12-06T18:56:30.404Z,4.30
2018-12-06T18:59:00.004Z,9.07
2018-12-06T19:01:29.228Z,4.03
2018-12-06T19:03:58.917Z,4.73
2018-12-06T19:06:28.117Z,13.07
2018-12-06T19:08:57.263Z,7.93
2018-12-06T19:11:26.426Z,8.53
2018-12-06T19:13:55.569Z,4.57
2018-12-06T19:16:24.880Z,9.60
2018-12-06T19:18:54.164Z,4.63
2018-12-06T19:21:23.508Z,9.37
2018-12-06T19:23:53.496Z,10.97
2018-12-06T19:26:22.863Z,9.23
2018-12-06T19:28:52.427Z,5.50
2018-12-06T19:31:21.632Z,4.00
2018-12-06T19:33:50.908Z,4.30
2018-12-06T19:36:20.197Z,4.70
2018-12-06T19:38:49.445Z,5.10
2018-12-06T19:41:18.605Z,4.10
2018-12-06T19:43:47.843Z,9.50
2018-12-06T19:46:18.732Z,6.00
2018-12-06T19:48:48.134Z,16.00
2018-12-06T19:51:17.436Z,7.40
2018-12-06T19:53:46.667Z,17.17
2018-12-06T19:56:15.960Z,10.70
2018-12-06T19:58:47.503Z,6.20
2018-12-06T20:01:17.002Z,10.10
2018-12-06T20:03:46.634Z,11.93
2018-12-06T20:06:17.309Z,5.20
2018-12-06T20:08:47.060Z,12.00
2018-12-06T20:11:16.281Z,9.37
2018-12-06T20:13:45.433Z,16.00
2018-12-06T20:16:14.761Z,5.87
2018-12-06T20:18:43.893Z,6.37
2018-12-06T20:21:13.504Z,5.73
2018-12-06T20:23:42.812Z,3.47
2018-12-06T20:26:12.577Z,3.60
2018-12-06T20:28:41.868Z,2.90
2018-12-06T20:31:11.189Z,2.50
2018-12-06T20:33:40.608Z,3.50
2018-12-06T20:36:10.167Z,3.60
2018-12-06T20:38:39.736Z,3.13
2018-12-06T20:41:09.699Z,3.20
2018-12-06T20:43:39.301Z,3.63
2018-12-06T20:46:08.742Z,3.80
2018-12-06T20:48:38.488Z,4.20
2018-12-06T20:51:07.714Z,4.53
2018-12-06T20:53:37.448Z,6.10
2018-12-06T20:56:07.241Z,5.10
2018-12-06T20:58:37.133Z,3.57
2018-12-06T21:01:06.528Z,4.10
2018-12-06T21:03:36.100Z,3.53
2018-12-06T21:06:05.496Z,3.60
2018-12-06T21:08:34.825Z,3.10
2018-12-06T21:11:04.186Z,2.67
2018-12-06T21:13:33.693Z,2.90
2018-12-06T21:16:03.580Z,3.10
2018-12-06T21:18:33.356Z,8.83
2018-12-06T21:21:03.105Z,3.30
2018-12-06T21:23:32.399Z,4.07
2018-12-06T21:26:01.616Z,3.47
2018-12-06T21:28:30.756Z,2.70
2018-12-06T21:30:59.977Z,2.63
2018-12-06T21:33:29.683Z,2.40
2018-12-06T21:35:59.650Z,2.50
2018-12-06T21:38:29.214Z,2.83
2018-12-06T21:40:58.568Z,3.33
2018-12-06T21:43:28.000Z,7.90
2018-12-06T21:45:57.635Z,11.93
2018-12-06T21:48:26.746Z,37.33
2018-12-06T21:50:55.880Z,4.43
2018-12-06T21:53:25.213Z,2.67
2018-12-06T21:55:54.360Z,2.50
2018-12-06T21:58:23.759Z,2.20
2018-12-06T22:00:53.071Z,2.93
2018-12-06T22:03:22.741Z,2.13
2018-12-06T22:05:51.940Z,4.70
2018-12-06T22:08:21.097Z,2.80
2018-12-06T22:10:50.720Z,2.50
2018-12-06T22:13:19.989Z,2.10
2018-12-06T22:15:49.120Z,1.80
2018-12-06T22:18:18.262Z,3.37
2018-12-06T22:20:47.479Z,2.80
2018-12-06T22:23:17.143Z,2.17
2018-12-06T22:25:46.381Z,1.67
2018-12-06T22:28:15.848Z,1.73
2018-12-06T22:30:45.092Z,2.13
2018-12-06T22:33:14.381Z,1.73
2018-12-06T22:35:43.875Z,1.73
2018-12-06T22:38:13.053Z,1.97
2018-12-06T22:40:42.377Z,2.20
2018-12-06T22:43:11.757Z,2.20
2018-12-06T22:46:11.761Z,2.83
2018-12-06T22:48:40.927Z,3.30
2018-12-06T22:51:10.217Z,1.90
2018-12-06T22:53:39.559Z,1.90
2018-12-06T22:56:09.172Z,2.50
2018-12-06T22:58:38.564Z,2.00
2018-12-06T23:01:11.173Z,1.60
2018-12-06T23:03:40.509Z,1.60
2018-12-06T23:06:11.003Z,1.70
2018-12-06T23:08:40.368Z,1.80
2018-12-06T23:11:10.132Z,2.10
2018-12-06T23:13:40.053Z,1.63
2018-12-06T23:16:09.377Z,1.63
2018-12-06T23:18:38.716Z,1.87
2018-12-06T23:21:07.999Z,1.47
2018-12-06T23:23:37.273Z,1.70
2018-12-06T23:26:06.496Z,1.47
2018-12-06T23:28:35.642Z,1.40
2018-12-06T23:31:04.928Z,1.83
2018-12-06T23:33:34.239Z,2.43
2018-12-06T23:36:03.363Z,2.90
2018-12-06T23:38:32.590Z,1.70
2018-12-06T23:41:01.718Z,2.00
2018-12-06T23:43:30.990Z,1.60
2018-12-06T23:46:00.117Z,1.67
2018-12-06T23:48:30.486Z,1.70
2018-12-06T23:51:16.692Z,1.90
2018-12-06T23:53:46.116Z,2.00
2018-12-06T23:56:15.572Z,2.10
2018-12-06T23:58:45.137Z,1.77
